createdAt,value
2023-03-21T00:00:53.531Z,100196.16
2023-03-21T00:03:26.618Z,100194.69
2023-03-21T00:05:54.659Z,100194.63
2023-03-21T00:08:24.927Z,100190.25
2023-03-21T00:11:00.475Z,100182.22
2023-03-21T00:13:32.937Z,100193.31
2023-03-21T00:16:31.286Z,100191.19
2023-03-21T00:19:06.441Z,100181.56
2023-03-21T00:21:49.061Z,100177.25
2023-03-21T00:24:24.031Z,100178.31
2023-03-21T00:26:52.021Z,100177.38
2023-03-21T00:29:20.397Z,100174.03
2023-03-21T00:31:48.066Z,100178.31
2023-03-21T00:34:17.697Z,100166.53
2023-03-21T00:36:50.851Z,100166.00
2023-03-21T00:39:18.751Z,100170.44
2023-03-21T00:41:46.390Z,100173.94
2023-03-21T00:44:15.597Z,100172.28
2023-03-21T00:46:54.479Z,100173.91
2023-03-21T00:49:33.613Z,100172.16
2023-03-21T00:52:17.067Z,100170.16
2023-03-21T00:54:52.630Z,100179.94
2023-03-21T00:57:22.177Z,100175.53
2023-03-21T00:59:54.736Z,100172.75
2023-03-21T01:02:23.127Z,100167.63
2023-03-21T01:04:51.205Z,100169.34
2023-03-21T01:07:18.744Z,100170.88
2023-03-21T01:09:46.960Z,100167.28
2023-03-21T01:12:14.482Z,100165.75
2023-03-21T01:14:42.404Z,100163.97
2023-03-21T01:17:10.089Z,100174.47
2023-03-21T01:19:50.543Z,100167.53
2023-03-21T01:22:18.642Z,100170.78
2023-03-21T01:24:54.151Z,100165.63
2023-03-21T01:27:24.555Z,100167.47
2023-03-21T01:29:52.617Z,100160.44
2023-03-21T01:32:20.307Z,100157.06
2023-03-21T01:34:48.540Z,100164.00
2023-03-21T01:37:18.668Z,100160.63
2023-03-21T01:39:49.640Z,100156.13
2023-03-21T01:42:17.434Z,100162.16
2023-03-21T01:45:03.350Z,100155.56
2023-03-21T01:47:42.808Z,100156.59
2023-03-21T01:50:23.989Z,100160.78
2023-03-21T01:53:16.289Z,100160.72
2023-03-21T01:55:44.375Z,100159.06
2023-03-21T01:58:32.572Z,100151.97
2023-03-21T02:01:11.839Z,100145.31
2023-03-21T02:03:50.928Z,100144.34
2023-03-21T02:06:41.584Z,100150.59
2023-03-21T02:09:22.724Z,100149.16
2023-03-21T02:11:52.080Z,100151.09
2023-03-21T02:14:28.957Z,100149.41
2023-03-21T02:17:58.936Z,100157.22
2023-03-21T02:20:56.176Z,100149.72
2023-03-21T02:23:54.752Z,100146.13
2023-03-21T02:26:46.426Z,100147.25
2023-03-21T02:29:21.890Z,100154.22
2023-03-21T02:32:36.917Z,100146.13
2023-03-21T02:35:54.241Z,100148.50
2023-03-21T02:38:33.664Z,100140.22
2023-03-21T02:41:19.072Z,100147.22
2023-03-21T02:44:20.035Z,100142.78
2023-03-21T02:47:05.392Z,100149.63
2023-03-21T02:49:43.180Z,100153.84
2023-03-21T02:52:35.522Z,100151.25
2023-03-21T02:55:13.886Z,100157.94
2023-03-21T02:57:52.485Z,100155.09
2023-03-21T03:00:25.668Z,100151.91
2023-03-21T03:03:08.336Z,100157.38
2023-03-21T03:05:44.417Z,100151.97
2023-03-21T03:08:38.384Z,100151.91
2023-03-21T03:11:19.739Z,100149.59
2023-03-21T03:14:42.060Z,100157.19
2023-03-21T03:17:39.166Z,100158.06
2023-03-21T03:20:17.266Z,100161.03
2023-03-21T03:23:28.212Z,100166.09
2023-03-21T03:26:05.528Z,100167.09
2023-03-21T03:28:41.721Z,100173.88
2023-03-21T03:31:22.052Z,100173.19
2023-03-21T03:33:58.161Z,100171.06
2023-03-21T03:36:34.279Z,100172.84
2023-03-21T03:39:09.126Z,100166.19
2023-03-21T03:42:10.111Z,100163.75
2023-03-21T03:44:45.382Z,100175.69
2023-03-21T03:47:56.071Z,100174.13
2023-03-21T03:50:46.928Z,100170.09
2023-03-21T03:53:29.590Z,100171.25
2023-03-21T03:56:01.558Z,100174.72
2023-03-21T03:58:43.244Z,100171.47
2023-03-21T04:01:14.288Z,100168.47
2023-03-21T04:03:50.782Z,100175.63
2023-03-21T04:06:22.219Z,100178.22
2023-03-21T04:08:52.125Z,100172.91
2023-03-21T04:11:21.248Z,100176.28
2023-03-21T04:13:53.125Z,100176.13
2023-03-21T04:16:23.514Z,100176.91
2023-03-21T04:18:52.517Z,100176.91
2023-03-21T04:21:21.664Z,100173.59
2023-03-21T04:23:49.517Z,100175.09
2023-03-21T04:26:17.203Z,100177.00
2023-03-21T04:28:55.426Z,100177.06
2023-03-21T04:31:46.168Z,100173.78
2023-03-21T04:34:14.416Z,100183.44
2023-03-21T04:36:47.438Z,100181.81
2023-03-21T04:39:16.807Z,100178.16
2023-03-21T04:41:48.227Z,100175.41
2023-03-21T04:44:17.597Z,100182.63
2023-03-21T04:46:45.611Z,100182.38
2023-03-21T04:49:14.451Z,100179.03
2023-03-21T04:51:45.323Z,100178.84
2023-03-21T04:54:16.253Z,100185.06
2023-03-21T04:56:44.773Z,100179.28
2023-03-21T04:59:16.663Z,100184.25
2023-03-21T05:01:44.943Z,100183.28
2023-03-21T05:04:14.451Z,100186.69
2023-03-21T05:06:42.704Z,100190.91
2023-03-21T05:09:11.730Z,100187.13
2023-03-21T05:11:41.282Z,100192.22
2023-03-21T05:14:14.364Z,100195.88
2023-03-21T05:16:48.838Z,100198.41
2023-03-21T05:19:20.625Z,100193.72
2023-03-21T05:21:49.802Z,100202.50
2023-03-21T05:24:22.790Z,100192.25
2023-03-21T05:26:52.555Z,100195.75
2023-03-21T05:29:23.985Z,100195.66
2023-03-21T05:32:06.897Z,100193.97
2023-03-21T05:34:34.789Z,100198.16
2023-03-21T05:37:02.881Z,100199.88
2023-03-21T05:39:44.284Z,100201.75
2023-03-21T05:42:19.210Z,100199.25
2023-03-21T05:44:47.843Z,100207.88
2023-03-21T05:47:17.336Z,100213.81
2023-03-21T05:49:47.783Z,100209.81
2023-03-21T05:52:16.755Z,100213.84
2023-03-21T05:54:47.008Z,100216.66
2023-03-21T05:57:15.573Z,100221.81
2023-03-21T05:59:59.104Z,100220.72
2023-03-21T06:02:28.263Z,100222.34
2023-03-21T06:04:59.521Z,100231.94
2023-03-21T06:07:27.546Z,100225.09
2023-03-21T06:09:56.705Z,100234.53
2023-03-21T06:12:24.476Z,100243.78
2023-03-21T06:15:15.492Z,100245.50
2023-03-21T06:17:54.356Z,100246.34
2023-03-21T06:20:22.456Z,100248.72
2023-03-21T06:22:54.148Z,100239.09
2023-03-21T06:25:22.305Z,100249.38
2023-03-21T06:27:50.253Z,100253.03
2023-03-21T06:30:19.539Z,100250.44
2023-03-21T06:33:01.143Z,100251.09
2023-03-21T06:35:29.076Z,100263.47
2023-03-21T06:37:58.429Z,100251.88
2023-03-21T06:40:28.500Z,100254.84
2023-03-21T06:42:56.533Z,100251.25
2023-03-21T06:45:25.685Z,100253.75
2023-03-21T06:47:54.019Z,100254.22
2023-03-21T06:50:32.575Z,100258.19
2023-03-21T06:53:00.308Z,100255.72
2023-03-21T06:55:30.942Z,100260.75
2023-03-21T06:58:00.825Z,100265.31
2023-03-21T07:00:29.557Z,100269.31
2023-03-21T07:02:57.833Z,100261.69
2023-03-21T07:05:27.478Z,100264.13
2023-03-21T07:07:55.071Z,100268.00
2023-03-21T07:10:24.499Z,100264.56
2023-03-21T07:13:02.076Z,100264.44
2023-03-21T07:15:48.988Z,100275.59
2023-03-21T07:18:16.686Z,100277.13
2023-03-21T07:20:51.018Z,100277.81
2023-03-21T07:23:20.444Z,100281.22
2023-03-21T07:25:50.409Z,100279.41
2023-03-21T07:28:19.075Z,100280.53
2023-03-21T07:30:56.687Z,100280.44
2023-03-21T07:33:24.953Z,100289.19
2023-03-21T07:35:57.785Z,100285.88
2023-03-21T07:38:27.045Z,100283.91
2023-03-21T07:40:55.298Z,100288.06
2023-03-21T07:43:23.567Z,100277.13
2023-03-21T07:45:57.555Z,100283.97
2023-03-21T07:48:27.964Z,100279.44
2023-03-21T07:50:56.331Z,100278.72
2023-03-21T07:53:23.889Z,100278.53
2023-03-21T07:55:53.113Z,100284.13
2023-03-21T07:58:20.998Z,100288.19
2023-03-21T08:00:49.030Z,100287.03
2023-03-21T08:03:16.881Z,100293.31
2023-03-21T08:05:45.536Z,100292.47
2023-03-21T08:08:13.204Z,100293.25
2023-03-21T08:10:44.321Z,100296.94
2023-03-21T08:13:12.566Z,100302.13
2023-03-21T08:15:42.179Z,100295.66
2023-03-21T08:18:11.220Z,100309.09
2023-03-21T08:20:39.378Z,100296.75
2023-03-21T08:23:07.087Z,100297.91
2023-03-21T08:25:35.712Z,100305.06
2023-03-21T08:28:04.299Z,100305.22
2023-03-21T08:30:32.245Z,100302.47
2023-03-21T08:33:01.882Z,100309.63
2023-03-21T08:35:31.508Z,100315.44
2023-03-21T08:37:59.230Z,100315.44
2023-03-21T08:40:27.269Z,100321.50
2023-03-21T08:42:54.886Z,100313.88
2023-03-21T08:45:23.740Z,100321.81
2023-03-21T08:47:51.488Z,100320.81
2023-03-21T08:50:21.999Z,100319.25
2023-03-21T08:52:51.055Z,100319.06
2023-03-21T08:55:19.880Z,100321.41
2023-03-21T08:57:47.516Z,100323.94
2023-03-21T09:00:17.845Z,100323.75
2023-03-21T09:02:48.379Z,100320.69
2023-03-21T09:05:17.026Z,100322.41
2023-03-21T09:07:45.609Z,100318.25
2023-03-21T09:10:23.077Z,100325.13
2023-03-21T09:12:53.808Z,100331.53
2023-03-21T09:15:24.932Z,100334.28
2023-03-21T09:17:54.233Z,100332.91
2023-03-21T09:20:30.742Z,100337.31
2023-03-21T09:22:59.808Z,100341.63
2023-03-21T09:25:31.031Z,100343.06
2023-03-21T09:28:00.544Z,100348.31
2023-03-21T09:30:30.097Z,100345.56
2023-03-21T09:32:59.634Z,100354.28
2023-03-21T09:35:28.372Z,100356.81
2023-03-21T09:37:58.959Z,100358.53
2023-03-21T09:40:42.254Z,100356.94
2023-03-21T09:43:53.796Z,100353.41
2023-03-21T09:46:36.744Z,100357.50
2023-03-21T09:49:16.674Z,100357.09
2023-03-21T09:51:51.104Z,100358.06
2023-03-21T09:54:30.695Z,100356.53
2023-03-21T09:57:04.479Z,100363.56
2023-03-21T09:59:40.161Z,100373.47
2023-03-21T10:02:40.877Z,100358.94
2023-03-21T10:05:22.695Z,100357.28
2023-03-21T10:07:56.880Z,100353.88
2023-03-21T10:10:29.441Z,100356.66
2023-03-21T10:12:57.898Z,100355.66
2023-03-21T10:15:28.190Z,100355.72
2023-03-21T10:18:01.029Z,100353.69
2023-03-21T10:20:46.922Z,100365.22
2023-03-21T10:23:18.112Z,100360.56
2023-03-21T10:26:14.912Z,100356.81
2023-03-21T10:28:53.106Z,100371.28
2023-03-21T10:31:28.456Z,100358.66
2023-03-21T10:34:02.559Z,100363.22
2023-03-21T10:36:32.844Z,100367.69
2023-03-21T10:39:13.772Z,100364.59
2023-03-21T10:41:41.392Z,100366.75
2023-03-21T10:44:11.918Z,100375.44
2023-03-21T10:46:49.532Z,100378.03
2023-03-21T10:49:18.230Z,100379.53
2023-03-21T10:51:48.005Z,100374.03
2023-03-21T10:54:26.379Z,100369.00
2023-03-21T10:57:21.300Z,100388.94
2023-03-21T10:59:53.749Z,100383.25
2023-03-21T11:02:28.596Z,100381.41
2023-03-21T11:04:58.387Z,100379.88
2023-03-21T11:07:31.690Z,100377.31
2023-03-21T11:10:14.604Z,100378.00
2023-03-21T11:12:48.780Z,100378.59
2023-03-21T11:15:25.555Z,100387.19
2023-03-21T11:17:53.231Z,100380.19
2023-03-21T11:20:21.863Z,100392.63
2023-03-21T11:22:49.921Z,100382.69
2023-03-21T11:25:36.122Z,100382.56
2023-03-21T11:28:13.738Z,100382.31
2023-03-21T11:30:59.023Z,100377.88
2023-03-21T11:33:32.832Z,100372.88
2023-03-21T11:36:06.072Z,100366.69
2023-03-21T11:38:38.649Z,100371.69
2023-03-21T11:41:07.255Z,100370.84
2023-03-21T11:43:39.366Z,100366.41
2023-03-21T11:46:14.467Z,100365.59
2023-03-21T11:48:45.275Z,100367.78
2023-03-21T11:51:31.198Z,100369.78
2023-03-21T11:54:10.707Z,100367.63
2023-03-21T11:56:50.982Z,100366.97
2023-03-21T11:59:30.855Z,100357.84
2023-03-21T12:02:27.263Z,100363.22
2023-03-21T12:05:28.258Z,100358.53
2023-03-21T12:08:08.208Z,100364.97
2023-03-21T12:10:58.418Z,100362.97
2023-03-21T12:13:29.310Z,100364.50
2023-03-21T12:16:14.583Z,100367.56
2023-03-21T12:19:13.886Z,100365.16
2023-03-21T12:21:50.894Z,100362.59
2023-03-21T12:24:22.066Z,100355.81
2023-03-21T12:27:23.968Z,100349.13
2023-03-21T12:30:11.953Z,100354.28
2023-03-21T12:33:02.839Z,100354.63
2023-03-21T12:36:11.564Z,100347.41
2023-03-21T12:38:50.686Z,100344.16
2023-03-21T12:41:38.735Z,100345.50
2023-03-21T12:44:12.715Z,100341.97
2023-03-21T12:46:52.358Z,100337.69
2023-03-21T12:49:35.106Z,100335.59
2023-03-21T12:52:12.906Z,100339.28
2023-03-21T12:55:09.469Z,100336.69
2023-03-21T12:57:57.580Z,100332.13
2023-03-21T13:00:43.674Z,100344.09
2023-03-21T13:03:42.015Z,100334.69
2023-03-21T13:06:14.950Z,100339.75
2023-03-21T13:08:52.816Z,100340.59
2023-03-21T13:11:24.312Z,100339.88
2023-03-21T13:14:12.308Z,100344.75
2023-03-21T13:17:04.572Z,100331.94
2023-03-21T13:20:06.567Z,100335.19
2023-03-21T13:22:34.395Z,100345.66
2023-03-21T13:25:16.825Z,100335.41
2023-03-21T13:27:50.611Z,100331.84
2023-03-21T13:30:27.095Z,100336.66
2023-03-21T13:33:14.752Z,100331.34
2023-03-21T13:35:45.417Z,100339.50
2023-03-21T13:38:16.560Z,100329.00
2023-03-21T13:41:15.480Z,100322.69
2023-03-21T13:43:54.603Z,100332.00
2023-03-21T13:46:25.556Z,100331.13
2023-03-21T13:49:00.984Z,100334.00
2023-03-21T13:51:28.861Z,100335.31
2023-03-21T13:54:07.037Z,100341.72
2023-03-21T13:56:47.075Z,100347.88
2023-03-21T13:59:36.858Z,100350.44
2023-03-21T14:02:19.870Z,100349.25
2023-03-21T14:05:04.829Z,100354.66
2023-03-21T14:07:45.664Z,100344.41
2023-03-21T14:10:35.200Z,100351.59
2023-03-21T14:13:05.506Z,100350.44
2023-03-21T14:15:54.862Z,100348.47
2023-03-21T14:18:35.289Z,100353.41
2023-03-21T14:21:24.360Z,100344.38
2023-03-21T14:23:59.659Z,100354.50
2023-03-21T14:26:31.892Z,100350.50
2023-03-21T14:29:05.424Z,100343.88
2023-03-21T14:31:35.737Z,100342.88
2023-03-21T14:34:04.715Z,100345.38
2023-03-21T14:36:38.952Z,100337.50
2023-03-21T14:39:16.911Z,100319.06
2023-03-21T14:41:52.250Z,100335.97
2023-03-21T14:44:25.377Z,100333.13
2023-03-21T14:47:05.540Z,100325.13
2023-03-21T14:49:36.432Z,100324.38
2023-03-21T14:52:16.602Z,100331.75
2023-03-21T14:54:47.640Z,100328.56
2023-03-21T14:57:21.368Z,100323.75
2023-03-21T14:59:53.282Z,100310.91
2023-03-21T15:02:29.233Z,100329.22
2023-03-21T15:05:06.151Z,100326.25
2023-03-21T15:07:36.308Z,100322.28
2023-03-21T15:10:09.478Z,100314.31
2023-03-21T15:12:37.127Z,100317.28
2023-03-21T15:15:05.821Z,100318.84
2023-03-21T15:17:33.538Z,100318.41
2023-03-21T15:20:01.791Z,100314.81
2023-03-21T15:22:40.733Z,100320.22
2023-03-21T15:25:15.029Z,100309.28
2023-03-21T15:27:43.244Z,100305.59
2023-03-21T15:30:24.563Z,100309.66
2023-03-21T15:32:52.617Z,100310.06
2023-03-21T15:35:55.641Z,100310.16
2023-03-21T15:38:29.817Z,100308.66
2023-03-21T15:41:21.777Z,100312.25
2023-03-21T15:44:15.241Z,100316.66
2023-03-21T15:46:49.582Z,100312.25
2023-03-21T15:49:20.516Z,100312.50
2023-03-21T15:52:13.736Z,100317.28
2023-03-21T15:54:48.022Z,100318.56
2023-03-21T15:57:32.989Z,100314.47
2023-03-21T16:00:12.626Z,100313.03
2023-03-21T16:02:42.128Z,100312.56
2023-03-21T16:05:30.603Z,100315.44
2023-03-21T16:08:20.023Z,100318.69
2023-03-21T16:10:49.100Z,100319.81
2023-03-21T16:13:17.513Z,100318.00
2023-03-21T16:15:46.922Z,100327.06
2023-03-21T16:18:17.112Z,100327.22
2023-03-21T16:20:46.620Z,100323.81
2023-03-21T16:23:15.895Z,100320.69
2023-03-21T16:25:47.047Z,100319.28
2023-03-21T16:28:18.381Z,100317.03
2023-03-21T16:30:46.311Z,100320.75
2023-03-21T16:33:14.530Z,100323.56
2023-03-21T16:35:42.208Z,100328.34
2023-03-21T16:38:12.489Z,100319.88
2023-03-21T16:40:42.982Z,100319.91
2023-03-21T16:43:11.805Z,100319.28
2023-03-21T16:45:39.635Z,100313.28
2023-03-21T16:48:08.956Z,100322.00
2023-03-21T16:50:46.755Z,100318.03
2023-03-21T16:53:14.727Z,100327.13
2023-03-21T16:55:42.558Z,100322.16
2023-03-21T16:58:15.518Z,100326.94
2023-03-21T17:00:43.512Z,100332.56
2023-03-21T17:03:21.468Z,100329.25
2023-03-21T17:05:49.455Z,100332.16
2023-03-21T17:08:19.682Z,100337.63
2023-03-21T17:10:47.366Z,100341.22
2023-03-21T17:13:15.380Z,100342.63
2023-03-21T17:15:42.942Z,100342.13
2023-03-21T17:18:11.949Z,100343.16
2023-03-21T17:20:41.520Z,100348.66
2023-03-21T17:23:10.323Z,100347.16
2023-03-21T17:25:38.019Z,100353.44
2023-03-21T17:28:05.929Z,100357.91
2023-03-21T17:30:40.163Z,100356.25
2023-03-21T17:33:08.599Z,100357.94
2023-03-21T17:35:36.992Z,100367.63
2023-03-21T17:38:06.838Z,100361.69
2023-03-21T17:40:34.701Z,100360.78
2023-03-21T17:43:02.665Z,100366.13
2023-03-21T17:45:30.516Z,100370.53
2023-03-21T17:47:58.425Z,100368.91
2023-03-21T17:50:31.353Z,100370.75
2023-03-21T17:52:59.376Z,100371.81
2023-03-21T17:55:27.171Z,100370.22
2023-03-21T17:57:55.165Z,100369.44
2023-03-21T18:00:29.085Z,100368.66
2023-03-21T18:02:58.038Z,100379.13
2023-03-21T18:05:27.381Z,100388.66
2023-03-21T18:08:12.510Z,100386.94
2023-03-21T18:10:42.308Z,100390.47
2023-03-21T18:13:11.346Z,100399.16
2023-03-21T18:15:44.238Z,100405.09
2023-03-21T18:18:13.488Z,100395.69
2023-03-21T18:20:58.490Z,100406.25
2023-03-21T18:23:26.777Z,100410.78
2023-03-21T18:25:54.418Z,100403.94
2023-03-21T18:28:22.719Z,100404.97
2023-03-21T18:33:40.670Z,100404.13
2023-03-21T18:36:14.568Z,100405.09
2023-03-21T18:38:42.667Z,100401.75
2023-03-21T18:41:10.530Z,100402.69
2023-03-21T18:44:02.237Z,100411.44
2023-03-21T18:46:27.237Z,100393.47
2023-03-21T18:48:55.590Z,100409.03
2023-03-21T18:51:23.305Z,100406.44
2023-03-21T18:53:51.555Z,100412.50
2023-03-21T18:57:05.698Z,100410.88
2023-03-21T18:59:08.569Z,100418.72
2023-03-21T19:01:36.962Z,100417.06
2023-03-21T19:04:23.127Z,100410.09
2023-03-21T19:06:53.090Z,100417.06
2023-03-21T19:09:29.080Z,100425.72
2023-03-21T19:12:00.717Z,100419.72
2023-03-21T19:14:29.563Z,100413.72
2023-03-21T19:19:47.781Z,100414.56
2023-03-21T19:22:15.978Z,100418.94
2023-03-21T19:24:44.404Z,100407.75
2023-03-21T19:27:12.157Z,100411.25
2023-03-21T19:29:40.610Z,100405.22
2023-03-21T19:32:08.566Z,100407.81
2023-03-21T19:34:36.854Z,100408.72
2023-03-21T19:37:05.211Z,100418.22
2023-03-21T19:39:33.193Z,100413.94
2023-03-21T19:42:15.495Z,100407.94
2023-03-21T19:44:44.645Z,100413.13
2023-03-21T19:47:12.329Z,100418.31
2023-03-21T19:50:30.846Z,100416.59
2023-03-21T19:52:31.903Z,100421.75
2023-03-21T19:54:59.687Z,100414.00
2023-03-21T19:57:27.202Z,100415.72
2023-03-21T19:59:55.365Z,100419.19
2023-03-21T20:02:35.663Z,100424.34
2023-03-21T20:05:08.131Z,100424.38
2023-03-21T20:07:36.134Z,100425.22
2023-03-21T20:10:05.246Z,100431.25
2023-03-21T20:12:33.234Z,100431.25
2023-03-21T20:15:16.125Z,100435.56
2023-03-21T20:17:44.892Z,100429.53
2023-03-21T20:20:18.243Z,100433.84
2023-03-21T20:23:11.017Z,100432.09
2023-03-21T20:25:41.871Z,100432.09
2023-03-21T20:28:16.341Z,100439.00
2023-03-21T20:30:54.027Z,100432.09
2023-03-21T20:33:21.729Z,100442.44
2023-03-21T20:38:39.426Z,100445.88
2023-03-21T20:41:07.780Z,100443.28
2023-03-21T20:44:28.187Z,100447.56
2023-03-21T20:46:24.084Z,100451.84
2023-03-21T20:48:51.819Z,100438.91
2023-03-21T20:54:07.421Z,100446.69
2023-03-21T20:56:35.754Z,100441.50
2023-03-21T20:59:16.320Z,100439.78
2023-03-21T21:01:48.825Z,100443.19
2023-03-21T21:04:19.980Z,100435.44
2023-03-21T21:06:48.749Z,100433.72
2023-03-21T21:09:17.321Z,100437.16
2023-03-21T21:14:35.511Z,100433.75
2023-03-21T21:17:20.931Z,100434.59
2023-03-21T21:19:50.791Z,100426.00
2023-03-21T21:22:19.073Z,100418.25
2023-03-21T21:24:46.690Z,100423.41
2023-03-21T21:27:14.640Z,100420.00
2023-03-21T21:29:43.490Z,100416.53
2023-03-21T21:32:11.603Z,100409.63
2023-03-21T21:34:39.263Z,100419.09
2023-03-21T21:37:07.167Z,100426.78
2023-03-21T21:39:38.649Z,100426.75
2023-03-21T21:42:06.604Z,100427.59
2023-03-21T21:44:34.236Z,100426.72
2023-03-21T21:47:08.544Z,100426.69
2023-03-21T21:49:36.550Z,100429.25
2023-03-21T21:52:04.911Z,100426.69
2023-03-21T21:54:34.267Z,100428.41
2023-03-21T21:57:02.303Z,100420.69
2023-03-21T21:59:30.070Z,100424.97
2023-03-21T22:01:58.569Z,100427.53
2023-03-21T22:04:27.911Z,100430.13
2023-03-21T22:06:56.121Z,100419.75
2023-03-21T22:09:24.077Z,100424.97
2023-03-21T22:11:52.208Z,100425.81
2023-03-21T22:14:19.905Z,100428.44
2023-03-21T22:16:47.901Z,100431.84
2023-03-21T22:19:15.521Z,100430.13
2023-03-21T22:21:43.438Z,100432.69
2023-03-21T22:24:11.000Z,100433.47
2023-03-21T22:26:48.995Z,100431.72
2023-03-21T22:29:19.591Z,100429.97
2023-03-21T22:31:47.639Z,100424.81
2023-03-21T22:34:15.502Z,100426.47
2023-03-21T22:36:47.100Z,100422.13
2023-03-21T22:39:14.824Z,100426.38
2023-03-21T22:41:42.629Z,100421.22
2023-03-21T22:44:10.301Z,100433.19
2023-03-21T22:46:38.295Z,100428.88
2023-03-21T22:49:06.141Z,100438.31
2023-03-21T22:51:34.206Z,100434.00
2023-03-21T22:54:02.084Z,100438.28
2023-03-21T22:56:30.127Z,100441.75
2023-03-21T22:59:00.197Z,100439.22
2023-03-21T23:01:28.177Z,100440.88
2023-03-21T23:03:56.821Z,100439.09
2023-03-21T23:06:24.718Z,100434.72
2023-03-21T23:08:52.314Z,100433.88
2023-03-21T23:11:20.241Z,100427.88
2023-03-21T23:13:58.736Z,100427.16
2023-03-21T23:16:34.874Z,100429.69
2023-03-21T23:19:03.522Z,100434.00
2023-03-21T23:21:32.139Z,100421.13
2023-03-21T23:23:59.633Z,100422.84
2023-03-21T23:26:27.883Z,100418.44
2023-03-21T23:28:55.908Z,100416.69
2023-03-21T23:31:27.266Z,100419.19
2023-03-21T23:33:57.945Z,100417.44
2023-03-21T23:36:26.202Z,100424.25
2023-03-21T23:38:54.174Z,100417.38
2023-03-21T23:41:24.091Z,100415.66
2023-03-21T23:43:52.022Z,100423.47
2023-03-21T23:46:20.551Z,100417.28
2023-03-21T23:48:48.305Z,100407.88
2023-03-21T23:51:18.025Z,100401.81
2023-03-21T23:53:46.567Z,100412.09
2023-03-21T23:56:20.629Z,100413.78
2023-03-21T23:58:50.109Z,100409.41
